Time;durP1;ratioP1;P1;durP2;ratioP2;P2;SDS_P1;SDS_P2;PMS_P1;PMS_P2;Temp;Humidity;BMP_temperature;BMP_pressure;BME280_temperature;BME280_humidity;BME280_pressure;Samples;Min_cycle;Max_cycle;Signal;HPM_P1;HPM_P2
2022/05/02 00:01:13;;;;;;;16.43;10.33;;;8.10;99.90;;;;;;5132222;27;20231;-61
2022/05/02 00:03:40;;;;;;;15.03;10.90;;;8.00;99.90;;;;;;5132184;27;20347;-63
2022/05/02 00:06:08;;;;;;;16.73;10.63;;;8.00;99.90;;;;;;5132261;27;20207;-63
2022/05/02 00:08:35;;;;;;;15.13;10.80;;;8.00;99.90;;;;;;5132636;27;20238;-62
2022/05/02 00:11:01;;;;;;;16.40;10.83;;;8.00;99.90;;;;;;5131988;27;20287;-62
2022/05/02 00:13:28;;;;;;;14.97;10.20;;;8.00;99.90;;;;;;5132253;27;20247;-62
2022/05/02 00:15:55;;;;;;;16.87;11.47;;;7.90;99.90;;;;;;5133757;27;20641;-62
2022/05/02 00:18:22;;;;;;;14.87;10.90;;;7.90;99.90;;;;;;5136377;27;20202;-62
2022/05/02 00:20:49;;;;;;;19.73;10.73;;;7.80;99.90;;;;;;5136027;27;20227;-62
2022/05/02 00:23:17;;;;;;;17.50;10.47;;;7.90;99.90;;;;;;5136219;27;20672;-62
2022/05/02 00:25:43;;;;;;;15.43;10.63;;;7.80;99.90;;;;;;5136192;27;20255;-62
2022/05/02 00:28:13;;;;;;;15.97;11.07;;;7.80;99.90;;;;;;5135521;27;20256;-62
2022/05/02 00:30:40;;;;;;;15.33;10.97;;;7.70;99.90;;;;;;5136259;27;20226;-61
2022/05/02 00:33:07;;;;;;;17.00;11.73;;;7.70;99.90;;;;;;5135806;27;20203;-63
2022/05/02 00:35:34;;;;;;;18.83;12.00;;;7.70;1.00;;;;;;5136121;27;20203;-63
2022/05/02 00:38:00;;;;;;;21.10;13.10;;;7.60;1.00;;;;;;5135374;27;20251;-63
2022/05/02 00:40:28;;;;;;;19.57;12.47;;;7.60;1.00;;;;;;5135763;27;20235;-63
2022/05/02 00:42:55;;;;;;;17.90;11.30;;;7.60;1.00;;;;;;5135830;27;20663;-63
2022/05/02 00:45:22;;;;;;;18.60;11.10;;;7.60;1.00;;;;;;5136271;27;20347;-62
2022/05/02 00:47:53;;;;;;;14.17;11.10;;;7.50;1.00;;;;;;5135646;27;20219;-63
2022/05/02 00:50:34;;;;;;;16.33;12.07;;;7.50;1.00;;;;;;5135658;27;20227;-62
2022/05/02 00:53:01;;;;;;;18.23;11.53;;;7.40;1.00;;;;;;5135688;27;20611;-62
2022/05/02 00:55:30;;;;;;;17.20;10.47;;;7.40;63.10;;;;;;5135796;27;20211;-62
2022/05/02 00:57:58;;;;;;;17.77;11.40;;;7.30;99.90;;;;;;5135633;27;20252;-62
2022/05/02 01:00:25;;;;;;;18.40;11.17;;;7.30;99.90;;;;;;5135231;27;20218;-60
2022/05/02 01:02:51;;;;;;;17.27;11.53;;;7.20;99.90;;;;;;5135663;27;20275;-62
2022/05/02 01:05:18;;;;;;;17.13;11.40;;;7.20;99.90;;;;;;5135454;27;20260;-63
2022/05/02 01:07:46;;;;;;;16.10;11.97;;;7.10;99.90;;;;;;5134803;27;20211;-63
2022/05/02 01:10:17;;;;;;;16.90;12.03;;;7.10;1.00;;;;;;5135450;27;20306;-62
2022/05/02 01:12:46;;;;;;;17.57;11.10;;;7.10;1.00;;;;;;5135109;27;20225;-63
2022/05/02 01:15:14;;;;;;;17.17;11.20;;;7.10;1.00;;;;;;5135339;27;20657;-63
2022/05/02 01:17:41;;;;;;;15.73;10.80;;;7.00;76.60;;;;;;5134767;27;20238;-63
2022/05/02 01:20:10;;;;;;;18.03;10.77;;;7.00;99.90;;;;;;5134680;27;20754;-62
2022/05/02 01:22:37;;;;;;;17.67;11.50;;;7.00;99.90;;;;;;5134884;27;20649;-63
2022/05/02 01:25:05;;;;;;;15.60;11.83;;;6.90;99.90;;;;;;5135349;27;20634;-63
2022/05/02 01:27:32;;;;;;;18.20;12.30;;;6.90;1.00;;;;;;5133206;27;20258;-62
2022/05/02 01:29:58;;;;;;;19.13;12.57;;;6.90;26.30;;;;;;5135142;27;20279;-63
2022/05/02 01:32:25;;;;;;;19.73;12.43;;;6.90;99.90;;;;;;5134972;27;20209;-61
2022/05/02 01:34:52;;;;;;;15.87;11.10;;;6.80;38.00;;;;;;5134578;27;20203;-63
2022/05/02 01:37:20;;;;;;;18.97;12.60;;;6.80;99.90;;;;;;5134780;27;20214;-63
2022/05/02 01:39:46;;;;;;;17.20;12.63;;;6.80;99.90;;;;;;5134698;27;20286;-63
2022/05/02 01:42:13;;;;;;;20.53;13.73;;;6.80;99.90;;;;;;5134854;27;20206;-63
2022/05/02 01:44:41;;;;;;;19.73;12.83;;;6.80;99.90;;;;;;5134769;27;20202;-63
2022/05/02 01:47:09;;;;;;;21.30;13.40;;;6.80;99.90;;;;;;5134253;27;20578;-62
2022/05/02 01:49:36;;;;;;;21.87;12.80;;;6.80;1.00;;;;;;5134772;27;20821;-63
2022/05/02 01:52:03;;;;;;;18.70;13.43;;;6.70;1.00;;;;;;5134650;27;20203;-63
2022/05/02 01:54:31;;;;;;;20.23;12.50;;;6.70;1.00;;;;;;5134687;27;20745;-61
2022/05/02 01:56:58;;;;;;;23.30;13.37;;;6.70;1.00;;;;;;5134358;27;20260;-61
2022/05/02 01:59:25;;;;;;;20.83;13.53;;;6.60;1.00;;;;;;5134407;27;20245;-62
2022/05/02 02:01:52;;;;;;;18.37;13.23;;;6.70;1.00;;;;;;5134072;27;20230;-63
2022/05/02 02:07:03;;;;;;;21.80;14.57;;;6.70;1.00;;;;;;5133801;27;20693;-63
2022/05/02 02:09:31;;;;;;;20.53;13.83;;;6.60;1.00;;;;;;5134362;27;20240;-62
2022/05/02 02:11:58;;;;;;;17.77;12.60;;;6.60;1.00;;;;;;5134004;27;20207;-62
2022/05/02 02:14:25;;;;;;;20.27;13.60;;;6.60;1.00;;;;;;5133928;27;20763;-63
2022/05/02 02:16:52;;;;;;;18.13;13.17;;;6.60;1.00;;;;;;5133730;27;20263;-63
2022/05/02 02:19:18;;;;;;;19.23;13.10;;;6.60;12.30;;;;;;5134080;27;20226;-62
2022/05/02 02:21:45;;;;;;;22.10;14.80;;;6.60;56.40;;;;;;5134045;27;20283;-63
2022/05/02 02:24:12;;;;;;;19.90;14.00;;;6.60;99.40;;;;;;5134106;27;20203;-62
2022/05/02 02:26:41;;;;;;;20.23;14.37;;;6.60;99.90;;;;;;5134038;27;20255;-60
2022/05/02 02:29:08;;;;;;;18.93;13.43;;;6.70;99.90;;;;;;5133770;27;21076;-62
2022/05/02 02:31:34;;;;;;;22.10;13.83;;;6.60;99.90;;;;;;5134236;27;20259;-63
2022/05/02 02:34:01;;;;;;;22.60;14.43;;;6.60;99.90;;;;;;5134193;27;20205;-62
2022/05/02 02:36:28;;;;;;;18.50;12.80;;;6.70;99.90;;;;;;5133958;27;20199;-62
2022/05/02 02:38:54;;;;;;;20.97;14.33;;;6.70;99.90;;;;;;5133616;27;20263;-63
2022/05/02 02:41:21;;;;;;;27.23;14.73;;;6.70;99.90;;;;;;5133293;27;20278;-63
2022/05/02 02:43:49;;;;;;;22.20;14.10;;;6.80;99.90;;;;;;5133898;27;20210;-63
2022/05/02 02:46:16;;;;;;;18.63;13.97;;;6.70;99.90;;;;;;5133052;27;20691;-63
2022/05/02 02:48:42;;;;;;;22.03;14.43;;;6.80;99.90;;;;;;5133644;27;20557;-63
2022/05/02 02:51:09;;;;;;;20.90;14.37;;;6.80;1.00;;;;;;5133556;27;20367;-61
2022/05/02 02:53:36;;;;;;;22.27;14.70;;;6.80;1.00;;;;;;5133557;27;20260;-63
2022/05/02 02:56:02;;;;;;;19.33;14.43;;;6.80;1.00;;;;;;5132967;27;20202;-63
2022/05/02 02:58:29;;;;;;;17.73;12.83;;;6.90;1.00;;;;;;5133639;27;20213;-63
2022/05/02 03:00:57;;;;;;;20.30;13.97;;;6.80;1.00;;;;;;5133372;27;20259;-62
2022/05/02 03:03:24;;;;;;;21.17;14.13;;;6.80;1.00;;;;;;5133324;27;20199;-62
2022/05/02 03:06:02;;;;;;;21.80;13.73;;;6.80;1.00;;;;;;5133417;27;20235;-63
2022/05/02 03:08:28;;;;;;;18.80;13.33;;;6.70;1.00;;;;;;5133123;27;20206;-63
2022/05/02 03:10:56;;;;;;;21.03;13.70;;;6.70;1.00;;;;;;5133305;27;20247;-63
2022/05/02 03:13:23;;;;;;;21.00;13.47;;;6.70;1.00;;;;;;5133544;27;20280;-63
2022/05/02 03:15:50;;;;;;;22.27;14.47;;;6.70;1.00;;;;;;5133036;27;20296;-61
2022/05/02 03:18:19;;;;;;;20.97;13.50;;;6.70;1.00;;;;;;5133273;27;20202;-61
2022/05/02 03:20:46;;;;;;;18.10;12.97;;;6.70;1.00;;;;;;5132754;27;20231;-62
2022/05/02 03:23:13;;;;;;;21.17;14.60;;;6.70;1.00;;;;;;5132907;27;20217;-62
2022/05/02 03:25:40;;;;;;;19.90;13.37;;;6.70;1.00;;;;;;5133294;27;20246;-62
2022/05/02 03:28:07;;;;;;;19.60;13.93;;;6.60;1.00;;;;;;5133221;27;20630;-61
2022/05/02 03:30:34;;;;;;;20.20;14.97;;;6.60;1.00;;;;;;5132793;27;20353;-62
2022/05/02 03:33:01;;;;;;;20.37;14.43;;;6.70;1.00;;;;;;5132876;27;20256;-62
2022/05/02 03:35:29;;;;;;;21.30;14.40;;;6.60;1.00;;;;;;5132596;27;20295;-62
2022/05/02 03:37:56;;;;;;;22.20;13.97;;;6.60;1.00;;;;;;5132271;27;20263;-62
2022/05/02 03:40:23;;;;;;;22.43;14.47;;;6.60;1.00;;;;;;5132582;27;20282;-62
2022/05/02 03:42:49;;;;;;;20.30;14.70;;;6.60;1.00;;;;;;5132779;27;20207;-61
2022/05/02 03:45:16;;;;;;;21.47;14.20;;;6.50;1.00;;;;;;5132802;27;20199;-62
2022/05/02 03:47:43;;;;;;;19.47;13.20;;;6.50;1.00;;;;;;5132070;27;20213;-61
2022/05/02 03:50:10;;;;;;;19.63;13.43;;;6.50;1.00;;;;;;5131447;27;20776;-62
2022/05/02 03:52:38;;;;;;;21.20;13.17;;;6.50;1.00;;;;;;5132115;27;20745;-61
2022/05/02 03:55:05;;;;;;;18.20;12.83;;;6.40;1.00;;;;;;5132561;27;20285;-61
2022/05/02 03:57:32;;;;;;;20.60;14.47;;;6.30;1.00;;;;;;5132123;27;20201;-62
2022/05/02 03:59:59;;;;;;;19.80;14.13;;;6.30;1.00;;;;;;5132254;27;20224;-61
2022/05/02 04:02:25;;;;;;;20.57;13.33;;;6.30;1.00;;;;;;5132292;27;20228;-62
2022/05/02 04:04:52;;;;;;;19.33;12.70;;;6.20;99.90;;;;;;5131957;27;20208;-62
2022/05/02 04:07:18;;;;;;;21.90;14.63;;;6.20;99.90;;;;;;5132233;27;20223;-62
2022/05/02 04:09:47;;;;;;;21.23;14.60;;;6.20;1.00;;;;;;5132218;27;20280;-61
2022/05/02 04:12:14;;;;;;;20.23;13.83;;;6.20;1.00;;;;;;5132117;27;20241;-61
2022/05/02 04:14:40;;;;;;;23.37;15.10;;;6.20;99.90;;;;;;5132257;27;20256;-62
2022/05/02 04:17:07;;;;;;;23.37;14.77;;;6.20;99.90;;;;;;5131322;27;20228;-60
2022/05/02 04:19:34;;;;;;;21.27;13.60;;;6.30;99.90;;;;;;5132017;27;20259;-61
2022/05/02 04:22:00;;;;;;;19.83;13.60;;;6.20;1.00;;;;;;5131948;27;20235;-62
2022/05/02 04:24:28;;;;;;;21.10;14.30;;;6.30;1.00;;;;;;5132164;27;20254;-60
2022/05/02 04:26:57;;;;;;;21.57;13.90;;;6.30;37.70;;;;;;5131775;27;20262;-61
2022/05/02 04:29:24;;;;;;;18.67;12.57;;;6.30;99.90;;;;;;5132036;27;20230;-62
2022/05/02 04:31:51;;;;;;;22.90;14.03;;;6.30;99.90;;;;;;5131870;27;20208;-62
2022/05/02 04:34:18;;;;;;;20.27;13.67;;;6.40;99.90;;;;;;5132306;27;20210;-61
2022/05/02 04:36:44;;;;;;;21.63;14.30;;;6.40;99.90;;;;;;5131826;27;20214;-62
2022/05/02 04:39:11;;;;;;;20.13;13.63;;;6.40;99.90;;;;;;5131981;27;20235;-61
2022/05/02 04:41:38;;;;;;;20.40;13.77;;;6.30;99.90;;;;;;5131901;27;20228;-61
2022/05/02 04:44:06;;;;;;;21.67;14.97;;;6.30;1.00;;;;;;5130803;27;20214;-62
2022/05/02 04:46:32;;;;;;;23.40;15.07;;;6.40;1.00;;;;;;5130660;27;20204;-63
2022/05/02 04:48:59;;;;;;;20.67;15.17;;;6.40;1.00;;;;;;5131240;27;20733;-63
2022/05/02 04:51:26;;;;;;;21.00;14.10;;;6.50;80.40;;;;;;5131988;27;20201;-63
2022/05/02 04:53:52;;;;;;;18.43;13.87;;;6.50;99.90;;;;;;5131787;27;20629;-62
2022/05/02 04:56:19;;;;;;;23.47;15.97;;;6.50;99.90;;;;;;5131548;27;20215;-63
2022/05/02 04:58:46;;;;;;;20.47;13.70;;;6.60;99.90;;;;;;5131844;27;20252;-62
2022/05/02 05:01:14;;;;;;;23.27;14.40;;;6.60;99.90;;;;;;5132022;27;20259;-63
2022/05/02 05:03:41;;;;;;;18.33;14.30;;;6.60;99.90;;;;;;5135672;27;20210;-63
2022/05/02 05:06:08;;;;;;;20.73;15.00;;;6.70;99.90;;;;;;5135131;27;20622;-63
2022/05/02 05:08:35;;;;;;;21.93;14.30;;;6.70;1.00;;;;;;5135768;27;20228;-62
2022/05/02 05:11:24;;;;;;;20.97;13.77;;;6.80;1.00;;;;;;5135420;27;20225;-63
2022/05/02 05:17:01;;;;;;;20.13;14.07;;;7.10;24.90;;;;;;5135162;27;20312;-63
2022/05/02 05:19:54;;;;;;;21.10;13.70;;;7.20;99.90;;;;;;5135092;27;20274;-63
2022/05/02 05:22:29;;;;;;;19.77;13.97;;;7.20;99.90;;;;;;5135094;27;20223;-62
2022/05/02 05:25:21;;;;;;;22.27;14.00;;;7.30;1.00;;;;;;5135098;27;20248;-63
2022/05/02 05:27:53;;;;;;;19.53;13.40;;;7.40;99.90;;;;;;5134537;27;20203;-64
2022/05/02 05:30:21;;;;;;;23.83;13.77;;;7.50;1.00;;;;;;5107532;27;20227;-64
2022/05/02 05:33:01;;;;;;;20.30;13.50;;;7.50;99.90;;;;;;5114002;28;20207;-65
2022/05/02 05:35:42;;;;;;;17.77;12.80;;;7.50;99.90;;;;;;5133705;27;20200;-64
2022/05/02 05:38:12;;;;;;;18.53;12.73;;;7.50;99.90;;;;;;5134528;27;20313;-63
2022/05/02 05:40:42;;;;;;;19.50;14.20;;;7.50;22.60;;;;;;5133420;27;20222;-60
2022/05/02 05:43:22;;;;;;;18.40;13.50;;;7.60;1.00;;;;;;5134392;27;20231;-63
2022/05/02 05:46:23;;;;;;;18.83;13.23;;;7.60;1.00;;;;;;5134366;27;20676;-63
2022/05/02 05:49:03;;;;;;;20.13;13.70;;;7.70;99.90;;;;;;5133931;27;20210;-64
2022/05/02 05:51:36;;;;;;;18.83;13.10;;;7.70;99.90;;;;;;5134356;27;20263;-62
2022/05/02 05:54:17;;;;;;;19.63;12.83;;;7.70;99.90;;;;;;5133935;27;20217;-63
2022/05/02 05:56:53;;;;;;;20.07;13.93;;;7.80;99.90;;;;;;5133681;27;20749;-64
2022/05/02 05:59:29;;;;;;;19.17;12.97;;;7.80;99.90;;;;;;5133573;27;20772;-64
2022/05/02 06:02:06;;;;;;;20.57;13.33;;;7.90;99.90;;;;;;5134274;27;20668;-62
2022/05/02 06:04:35;;;;;;;18.97;12.80;;;8.00;1.00;;;;;;5133495;27;20245;-64
2022/05/02 06:07:03;;;;;;;18.67;13.17;;;8.10;1.00;;;;;;5134244;27;20210;-63
2022/05/02 06:09:31;;;;;;;18.07;12.20;;;8.20;99.90;;;;;;5133827;27;20675;-61
2022/05/02 06:11:59;;;;;;;18.83;13.60;;;8.20;99.90;;;;;;5133057;27;20211;-61
2022/05/02 06:14:28;;;;;;;19.03;13.40;;;8.30;99.90;;;;;;5133063;27;20629;-63
2022/05/02 06:19:47;;;;;;;19.40;11.63;;;8.40;99.90;;;;;;5133471;27;20217;-62
2022/05/02 06:22:14;;;;;;;21.67;12.47;;;8.50;31.80;;;;;;5133066;27;20809;-63
2022/05/02 06:24:46;;;;;;;22.47;13.00;;;8.60;3.70;;;;;;5133546;27;20256;-63
2022/05/02 06:27:13;;;;;;;22.87;13.47;;;8.60;1.00;;;;;;5133471;27;20583;-63
2022/05/02 06:29:42;;;;;;;21.23;13.50;;;8.60;1.00;;;;;;5133078;27;20294;-62
2022/05/02 06:32:12;;;;;;;24.37;13.53;;;8.70;1.00;;;;;;5133015;27;20739;-63
2022/05/02 06:34:40;;;;;;;16.77;12.63;;;8.80;1.00;;;;;;5132817;27;20302;-62
2022/05/02 06:37:32;;;;;;;23.10;12.57;;;8.90;1.00;;;;;;5133200;27;20267;-62
2022/05/02 06:40:05;;;;;;;21.30;13.57;;;8.90;1.00;;;;;;5132841;27;20219;-61
2022/05/02 06:42:38;;;;;;;21.80;12.73;;;9.00;1.00;;;;;;5132982;27;20222;-62
2022/05/02 06:45:29;;;;;;;20.13;12.10;;;9.00;1.00;;;;;;5133379;27;20206;-61
2022/05/02 06:48:34;;;;;;;18.80;12.53;;;9.10;1.00;;;;;;5127775;27;20199;-63
2022/05/02 06:51:06;;;;;;;24.73;13.07;;;9.10;99.90;;;;;;5133562;27;20247;-61
2022/05/02 06:54:04;;;;;;;22.13;12.83;;;9.20;1.00;;;;;;5132459;27;20249;-63
2022/05/02 06:56:42;;;;;;;18.83;13.33;;;9.50;1.00;;;;;;5132699;27;20262;-61
2022/05/02 06:59:23;;;;;;;18.50;13.10;;;9.70;99.90;;;;;;5132625;27;20202;-64
2022/05/02 07:01:53;;;;;;;20.47;13.13;;;9.90;99.90;;;;;;5132270;27;20578;-66
2022/05/02 07:04:42;;;;;;;15.40;11.63;;;10.10;99.90;;;;;;5132376;27;20663;-62
2022/05/02 07:07:42;;;;;;;20.03;13.20;;;10.30;99.90;;;;;;5132384;27;20206;-63
2022/05/02 07:10:14;;;;;;;18.37;12.97;;;10.40;99.90;;;;;;5126725;27;20255;-63
2022/05/02 07:12:49;;;;;;;19.30;12.63;;;10.60;99.90;;;;;;5132379;27;20265;-62
2022/05/02 07:15:23;;;;;;;21.50;12.57;;;10.70;99.90;;;;;;5132647;27;20257;-62
2022/05/02 07:18:12;;;;;;;18.23;12.10;;;11.00;99.90;;;;;;5132235;27;20206;-64
2022/05/02 07:20:53;;;;;;;17.70;12.13;;;11.20;99.90;;;;;;5132076;27;20236;-60
2022/05/02 07:23:35;;;;;;;15.60;12.07;;;11.30;99.90;;;;;;5132400;27;20703;-60
2022/05/02 07:26:07;;;;;;;20.53;11.00;;;11.50;99.90;;;;;;5132260;27;20210;-60
2022/05/02 07:28:42;;;;;;;23.40;12.07;;;11.70;99.90;;;;;;5132235;27;20627;-60
2022/05/02 07:31:09;;;;;;;16.33;11.70;;;11.70;99.90;;;;;;5132081;27;20234;-62
2022/05/02 07:33:38;;;;;;;15.67;11.83;;;11.90;99.90;;;;;;5131978;27;20285;-61
2022/05/02 07:36:09;;;;;;;18.07;11.03;;;12.00;99.90;;;;;;5132276;27;20267;-62
2022/05/02 07:38:37;;;;;;;20.07;11.50;;;12.00;99.90;;;;;;5132756;27;20206;-64
2022/05/02 07:41:25;;;;;;;15.63;11.07;;;12.20;99.90;;;;;;5132395;27;20237;-64
2022/05/02 07:43:57;;;;;;;17.40;10.93;;;12.20;99.90;;;;;;5132374;27;20227;-64
2022/05/02 07:46:27;;;;;;;13.23;10.03;;;12.00;99.90;;;;;;5131930;27;20198;-63
2022/05/02 07:48:55;;;;;;;15.93;9.37;;;12.00;99.90;;;;;;5132227;27;20275;-64
2022/05/02 07:51:23;;;;;;;13.53;9.17;;;12.10;99.90;;;;;;5131654;27;20206;-62
2022/05/02 07:53:52;;;;;;;16.10;10.37;;;12.20;99.90;;;;;;5131993;27;20215;-61
2022/05/02 07:56:23;;;;;;;13.20;8.63;;;12.30;99.90;;;;;;5132099;27;20276;-64
2022/05/02 07:58:52;;;;;;;12.70;9.23;;;12.30;99.90;;;;;;5131875;27;20199;-66
2022/05/02 08:01:20;;;;;;;13.63;8.90;;;12.30;99.90;;;;;;5132088;27;20255;-64
2022/05/02 08:03:46;;;;;;;16.33;9.27;;;12.40;99.90;;;;;;5134695;27;20226;-61
2022/05/02 08:06:26;;;;;;;12.27;8.73;;;12.50;99.90;;;;;;5135341;27;20707;-61
2022/05/02 08:09:02;;;;;;;12.03;9.87;;;12.70;99.90;;;;;;5133622;27;20252;-61
2022/05/02 08:11:39;;;;;;;11.40;8.60;;;12.90;99.90;;;;;;5119286;28;20214;-64
2022/05/02 08:14:12;;;;;;;10.37;7.90;;;13.20;99.90;;;;;;5131889;27;20298;-63
2022/05/02 08:16:46;;;;;;;14.30;8.30;;;13.30;99.90;;;;;;5131373;27;20218;-64
2022/05/02 08:19:27;;;;;;;15.10;8.47;;;13.60;99.90;;;;;;5131965;27;20628;-62
2022/05/02 08:27:15;;;;;;;10.70;8.60;;;13.70;99.90;;;;;;5131437;27;20201;-63
2022/05/02 08:27:58;;;;;;;12.73;8.47;;;13.70;99.90;;;;;;5131127;28;20311;-63
2022/05/02 08:30:26;;;;;;;13.57;9.10;;;13.50;99.90;;;;;;5131620;27;20248;-62
2022/05/02 08:33:01;;;;;;;13.80;9.20;;;13.60;99.90;;;;;;5131297;27;20213;-63
2022/05/02 08:35:40;;;;;;;12.63;9.63;;;13.70;99.90;;;;;;5131974;27;20202;-63
2022/05/02 08:38:22;;;;;;;12.67;10.00;;;14.00;99.90;;;;;;5135153;27;20254;-63
2022/05/02 08:41:37;;;;;;;12.23;9.43;;;14.30;99.90;;;;;;5135119;27;20230;-63
2022/05/02 08:44:39;;;;;;;13.30;9.33;;;14.40;99.90;;;;;;5135047;27;20321;-63
2022/05/02 08:47:55;;;;;;;11.83;9.50;;;14.10;99.90;;;;;;5135172;27;20672;-62
2022/05/02 08:50:28;;;;;;;12.93;7.83;;;14.30;99.90;;;;;;5135122;27;20933;-63
2022/05/02 08:53:41;;;;;;;12.20;8.80;;;14.40;99.90;;;;;;5135949;27;20665;-66
2022/05/02 08:56:45;;;;;;;17.30;9.40;;;14.40;99.90;;;;;;5071057;28;20212;-64
2022/05/02 08:59:56;;;;;;;12.63;9.20;;;14.50;99.90;;;;;;5119381;27;20556;-62
2022/05/02 09:03:11;;;;;;;13.07;8.53;;;14.60;99.90;;;;;;5134512;27;20223;-63
2022/05/02 09:05:58;;;;;;;16.83;10.20;;;14.40;99.90;;;;;;5132690;27;20267;-61
2022/05/02 09:08:58;;;;;;;15.93;9.93;;;14.60;99.90;;;;;;5134717;27;20655;-62
2022/05/02 09:11:44;;;;;;;12.17;9.50;;;14.90;99.90;;;;;;5108436;27;20214;-63
2022/05/02 09:14:54;;;;;;;13.60;8.70;;;15.10;99.90;;;;;;5134783;27;20206;-64
2022/05/02 09:17:49;;;;;;;19.10;9.50;;;15.10;99.90;;;;;;5134694;27;20256;-63
2022/05/02 09:20:50;;;;;;;14.67;9.50;;;15.30;99.90;;;;;;5134301;27;20246;-64
2022/05/02 09:23:48;;;;;;;9.87;7.60;;;15.20;99.90;;;;;;5134705;27;20306;-63
2022/05/02 09:27:00;;;;;;;12.93;9.37;;;15.20;99.90;;;;;;5134083;27;20210;-63
2022/05/02 09:30:05;;;;;;;14.43;9.93;;;15.20;99.90;;;;;;5134604;27;20230;-62
2022/05/02 09:32:46;;;;;;;15.47;10.47;;;15.30;99.90;;;;;;5134021;27;20207;-63
2022/05/02 09:35:17;;;;;;;14.87;9.67;;;15.50;99.90;;;;;;5134606;27;20207;-65
2022/05/02 09:37:56;;;;;;;16.63;9.77;;;15.60;99.90;;;;;;5133783;27;20243;-61
2022/05/02 09:40:33;;;;;;;12.63;8.10;;;15.60;99.90;;;;;;5134071;27;20230;-60
2022/05/02 09:43:13;;;;;;;13.93;10.00;;;15.40;99.90;;;;;;5134289;27;20226;-62
2022/05/02 09:52:09;;;;;;;12.93;9.57;;;16.00;99.90;;;;;;5133708;27;20210;-61
2022/05/02 09:57:36;;;;;;;12.60;9.20;;;16.30;99.90;;;;;;5133598;27;20221;-65
2022/05/02 10:02:50;;;;;;;10.87;8.80;;;16.30;99.90;;;;;;5133241;27;20222;-62
2022/05/02 10:05:23;;;;;;;13.47;9.77;;;16.40;99.90;;;;;;5133556;27;20306;-63
2022/05/02 10:07:58;;;;;;;11.33;7.17;;;16.40;99.90;;;;;;5133263;27;20206;-64
2022/05/02 10:10:31;;;;;;;10.37;8.03;;;16.00;99.90;;;;;;5133606;27;20313;-62
2022/05/02 10:13:09;;;;;;;10.40;7.47;;;16.00;99.90;;;;;;5133128;27;20209;-63
2022/05/02 10:15:55;;;;;;;12.00;8.47;;;15.90;99.90;;;;;;5133328;27;20206;-65
2022/05/02 10:18:36;;;;;;;14.03;8.27;;;15.90;99.90;;;;;;5134036;27;20203;-64
2022/05/02 10:21:09;;;;;;;11.10;8.27;;;16.00;99.90;;;;;;5132751;27;20230;-60
2022/05/02 10:23:47;;;;;;;11.43;8.47;;;16.10;99.90;;;;;;5133408;27;20582;-62
2022/05/02 10:26:27;;;;;;;11.33;8.20;;;16.10;99.90;;;;;;5133015;27;20206;-63
2022/05/02 10:29:14;;;;;;;13.00;8.30;;;16.40;99.90;;;;;;5133518;27;20214;-62
2022/05/02 10:31:42;;;;;;;10.23;7.80;;;16.50;99.90;;;;;;5133085;27;20255;-62
2022/05/02 10:34:13;;;;;;;9.40;7.30;;;16.50;99.90;;;;;;5133422;27;20202;-62
2022/05/02 10:36:42;;;;;;;9.17;7.33;;;16.30;99.90;;;;;;5132798;27;20210;-61
2022/05/02 10:39:20;;;;;;;12.03;7.73;;;16.40;99.90;;;;;;5133024;27;20260;-62
2022/05/02 10:41:49;;;;;;;11.07;8.37;;;16.50;99.90;;;;;;5132763;27;20737;-62
2022/05/02 10:44:17;;;;;;;9.40;6.43;;;16.60;99.90;;;;;;5132713;27;20230;-64
2022/05/02 10:46:46;;;;;;;11.97;8.97;;;16.50;99.90;;;;;;5132456;27;20199;-62
2022/05/02 10:49:22;;;;;;;15.70;9.10;;;16.40;99.90;;;;;;5132516;27;20209;-62
2022/05/02 10:51:58;;;;;;;13.37;8.93;;;16.40;99.90;;;;;;5132810;27;20213;-62
2022/05/02 10:54:40;;;;;;;18.30;11.50;;;16.60;99.90;;;;;;5132670;27;20203;-62
2022/05/02 10:57:21;;;;;;;14.90;8.60;;;16.70;99.90;;;;;;5132889;27;20306;-63
2022/05/02 10:59:53;;;;;;;14.43;10.33;;;16.80;99.90;;;;;;5132527;27;20640;-65
2022/05/02 11:02:32;;;;;;;19.70;13.87;;;17.00;99.90;;;;;;5132336;27;20209;-65
2022/05/02 11:05:09;;;;;;;29.90;17.67;;;17.20;99.90;;;;;;5132715;27;20209;-63
2022/05/02 11:07:52;;;;;;;32.77;16.43;;;17.00;99.90;;;;;;5132245;27;20203;-63
2022/05/02 11:10:21;;;;;;;20.93;11.00;;;16.70;99.90;;;;;;5133343;27;20253;-64
2022/05/02 11:12:53;;;;;;;12.97;8.30;;;16.90;99.90;;;;;;5132246;27;20301;-65
2022/05/02 11:15:25;;;;;;;16.13;9.93;;;17.00;99.90;;;;;;5133112;27;20687;-64
2022/05/02 11:18:00;;;;;;;12.13;8.00;;;17.20;99.90;;;;;;5132244;27;20253;-64
2022/05/02 11:20:41;;;;;;;25.87;14.37;;;17.50;99.90;;;;;;5132224;27;20245;-64
2022/05/02 11:23:37;;;;;;;16.50;10.10;;;17.40;99.90;;;;;;5132583;27;20207;-62
2022/05/02 11:26:14;;;;;;;15.87;10.17;;;17.60;99.90;;;;;;5131816;27;20202;-64
2022/05/02 11:28:55;;;;;;;18.83;11.83;;;17.40;99.90;;;;;;5132541;27;20211;-63
2022/05/02 11:31:26;;;;;;;10.70;8.33;;;17.50;99.90;;;;;;5131788;27;20203;-65
2022/05/02 11:34:02;;;;;;;12.93;8.90;;;17.70;99.90;;;;;;5132097;27;20894;-64
2022/05/02 11:36:33;;;;;;;12.07;8.20;;;17.80;99.90;;;;;;5131844;27;20255;-63
2022/05/02 11:39:05;;;;;;;15.17;9.90;;;17.90;99.90;;;;;;5131959;27;20199;-64
2022/05/02 11:41:33;;;;;;;11.10;8.23;;;17.90;99.90;;;;;;5131866;27;20206;-65
2022/05/02 11:44:10;;;;;;;11.63;8.00;;;18.00;99.90;;;;;;5131802;27;20233;-64
2022/05/02 11:46:54;;;;;;;10.60;8.33;;;17.90;99.90;;;;;;5132013;27;20209;-64
2022/05/02 11:49:39;;;;;;;11.80;7.80;;;17.80;99.90;;;;;;5131333;27;20252;-64
2022/05/02 11:52:11;;;;;;;11.10;8.27;;;17.60;99.90;;;;;;5132621;27;20209;-64
2022/05/02 11:54:40;;;;;;;11.93;7.83;;;17.30;99.90;;;;;;5131631;27;20285;-66
2022/05/02 11:57:20;;;;;;;12.80;8.73;;;17.30;99.90;;;;;;5131764;27;20241;-65
2022/05/02 12:00:06;;;;;;;10.93;7.60;;;17.60;99.90;;;;;;5131759;27;20718;-65
2022/05/02 12:02:42;;;;;;;9.97;7.80;;;18.00;99.90;;;;;;5131701;27;20240;-63
2022/05/02 12:05:21;;;;;;;10.73;7.30;;;18.20;99.90;;;;;;5132345;27;20261;-63
2022/05/02 12:07:51;;;;;;;11.60;8.97;;;18.10;99.90;;;;;;5132106;27;20214;-64
2022/05/02 12:10:21;;;;;;;11.57;7.70;;;18.40;99.90;;;;;;5132588;27;20226;-65
2022/05/02 12:12:53;;;;;;;14.00;8.60;;;18.70;99.90;;;;;;5136823;27;20318;-64
2022/05/02 12:15:20;;;;;;;12.33;8.53;;;18.80;99.90;;;;;;5136300;27;20203;-66
2022/05/02 12:17:54;;;;;;;14.40;9.17;;;19.00;99.90;;;;;;5136138;27;20665;-63
2022/05/02 12:20:26;;;;;;;14.17;8.40;;;18.80;99.90;;;;;;5136663;27;20221;-65
2022/05/02 12:23:01;;;;;;;10.33;7.73;;;18.40;99.90;;;;;;5135991;27;20210;-65
2022/05/02 12:25:30;;;;;;;11.07;8.53;;;18.10;99.90;;;;;;5136073;27;20205;-64
2022/05/02 12:27:58;;;;;;;11.20;8.43;;;17.90;99.90;;;;;;5135951;27;20199;-66
2022/05/02 12:30:28;;;;;;;10.43;8.03;;;18.00;99.90;;;;;;5136497;27;20227;-63
2022/05/02 12:33:03;;;;;;;10.50;8.30;;;18.00;99.90;;;;;;5139256;27;20214;-65
2022/05/02 12:35:38;;;;;;;10.57;8.00;;;18.30;99.90;;;;;;5136535;27;20209;-66
2022/05/02 12:38:14;;;;;;;7.90;6.27;;;18.50;99.90;;;;;;5136097;27;20205;-64
2022/05/02 12:40:44;;;;;;;10.00;7.30;;;18.50;99.90;;;;;;5135876;27;20264;-63
2022/05/02 12:43:16;;;;;;;14.00;7.10;;;18.40;99.90;;;;;;5135968;27;20206;-62
2022/05/02 12:45:47;;;;;;;14.00;8.37;;;18.40;99.90;;;;;;5136173;27;20199;-62
2022/05/02 12:48:23;;;;;;;10.87;6.80;;;18.40;99.90;;;;;;5135412;27;20264;-63
2022/05/02 12:50:51;;;;;;;13.53;7.23;;;18.70;99.90;;;;;;5135077;27;20738;-61
2022/05/02 12:54:09;;;;;;;11.00;8.60;;;18.80;99.90;;;;;;5135532;27;20234;-62
2022/05/02 12:56:11;;;;;;;9.60;7.63;;;18.50;99.90;;;;;;5134886;27;20238;-62
2022/05/02 13:01:24;;;;;;;10.57;6.93;;;18.90;99.90;;;;;;5134809;27;20198;-62
2022/05/02 13:03:56;;;;;;;9.63;7.50;;;19.30;99.90;;;;;;5135346;27;20852;-63
2022/05/02 13:06:24;;;;;;;11.93;8.23;;;19.00;99.90;;;;;;5135022;27;20595;-64
2022/05/02 13:09:05;;;;;;;9.10;7.37;;;19.30;99.90;;;;;;5135320;27;20738;-62
2022/05/02 13:11:37;;;;;;;10.00;7.67;;;19.10;99.90;;;;;;5134551;27;20215;-62
2022/05/02 13:14:05;;;;;;;12.43;7.80;;;18.70;99.90;;;;;;5135104;27;20205;-64
2022/05/02 13:16:33;;;;;;;10.90;8.07;;;18.40;99.90;;;;;;5134432;27;20685;-63
2022/05/02 13:19:03;;;;;;;12.90;8.00;;;18.50;99.90;;;;;;5135155;27;20251;-62
2022/05/02 13:21:32;;;;;;;11.57;7.77;;;18.40;99.90;;;;;;5135642;27;20207;-63
2022/05/02 13:24:07;;;;;;;9.20;7.43;;;18.50;98.50;;;;;;5134174;27;20246;-63
2022/05/02 13:30:03;;;;;;;12.60;7.90;;;18.50;99.40;;;;;;5134320;27;20706;-63
2022/05/02 13:32:35;;;;;;;12.83;7.67;;;18.40;99.10;;;;;;5134444;27;20214;-63
2022/05/02 13:35:10;;;;;;;12.57;7.90;;;18.60;99.90;;;;;;5133709;27;20281;-63
2022/05/02 13:37:48;;;;;;;10.60;7.40;;;18.70;99.90;;;;;;5133808;27;20209;-62
2022/05/02 13:40:18;;;;;;;9.70;7.77;;;18.70;99.90;;;;;;5133991;27;20271;-62